LFRD 301030Z AUTO 09010KT 050V110 CAVOK 24/09 Q1019

ElémentsDécodage
LFRD Station météo située sur l'aérodrome de DINARD Pleurtuit-Saint-Malo
301030Z émis le 30 du mois à 10h30 UTC
AUTO Bulletin édité par un automate
09010KT vent du 090°, 10 noeuds
050V110 vent de direction variable entre 050° et 110°
CAVOK Ceiling And Visibility OK
- Visibilité de 10 Km ou plus
- Pas de nuage au-dessous de 1500m ou au-dessous de l'altitude minimale du secteur la plus élevée (si>1500m) et absence de CB
- pas de temps présent significatif
24/09 température 24°C, point de rosée 09°C
 soit une humidité relative de 39%
Q1019 la pression au niveau de la mer (QNH) est de 1019 hPa